createdAt,value
2022-07-26T00:01:03.106Z,21.5
2022-07-26T00:02:02.296Z,21.51000023
2022-07-26T00:03:05.911Z,21.51000023
2022-07-26T00:04:05.880Z,21.48999977
2022-07-26T00:05:07.574Z,21.45000076
2022-07-26T00:06:10.755Z,21.42000008
2022-07-26T00:07:04.727Z,21.40999985
2022-07-26T00:09:06.514Z,21.42000008
2022-07-26T00:10:08.461Z,21.39999962
2022-07-26T00:11:07.100Z,21.37999916
2022-07-26T00:11:07.179Z,21.37999916
2022-07-26T00:12:05.869Z,21.39999962
2022-07-26T00:13:00.151Z,21.43000031
2022-07-26T00:14:03.412Z,21.45000076
2022-07-26T00:14:58.733Z,21.44000053
2022-07-26T00:15:56.207Z,21.40999985
2022-07-26T00:16:57.020Z,21.39999962
2022-07-26T00:17:52.409Z,21.38999939
2022-07-26T00:19:54.790Z,21.36000061
2022-07-26T00:20:47.501Z,21.34000015
2022-07-26T00:21:50.209Z,21.32999992
2022-07-26T00:22:44.769Z,21.31999969
2022-07-26T00:24:49.595Z,21.29000092
2022-07-26T00:26:51.506Z,21.37999916
2022-07-26T00:27:38.281Z,21.40999985
2022-07-26T00:29:48.415Z,21.39999962
2022-07-26T00:30:45.025Z,21.35000038
2022-07-26T00:31:47.958Z,21.31999969
2022-07-26T00:32:46.171Z,21.28000069
2022-07-26T00:33:48.696Z,21.27000046
2022-07-26T00:34:47.819Z,21.23999977
2022-07-26T00:35:46.190Z,21.20999908
2022-07-26T00:36:47.442Z,21.18000031
2022-07-26T00:37:44.175Z,21.15999985
2022-07-26T00:39:53.764Z,21.12999916
2022-07-26T00:40:55.362Z,21.11000061
2022-07-26T00:41:57.080Z,21.05999947
2022-07-26T00:42:54.226Z,21.05999947
2022-07-26T00:43:54.332Z,21.04999924
2022-07-26T00:44:54.959Z,21.02000046
2022-07-26T00:45:55.558Z,21
2022-07-26T00:46:56.215Z,20.96999931
2022-07-26T00:47:52.723Z,20.96999931
2022-07-26T00:49:03.948Z,20.95999908
2022-07-26T00:49:57.776Z,20.95000076
2022-07-26T00:50:56.740Z,20.95000076
2022-07-26T00:51:56.339Z,20.94000053
2022-07-26T00:53:04.445Z,20.93000031
2022-07-26T00:53:58.817Z,20.95000076
2022-07-26T00:55:02.613Z,20.93000031
2022-07-26T00:56:00.981Z,20.92000008
2022-07-26T00:57:14.189Z,20.92000008
2022-07-26T00:59:48.895Z,21.06999969
2022-07-26T01:00:49.532Z,21.14999962
2022-07-26T01:01:49.038Z,21.19000053
2022-07-26T01:02:44.468Z,21.14999962
2022-07-26T01:04:41.301Z,21.14999962
2022-07-26T01:05:41.592Z,21.11000061
2022-07-26T01:06:40.780Z,21.06999969
2022-07-26T01:07:42.276Z,21.03000069
2022-07-26T01:08:36.596Z,21
2022-07-26T01:09:35.855Z,20.96999931
2022-07-26T01:10:34.503Z,20.94000053
2022-07-26T01:11:39.897Z,20.94000053
2022-07-26T01:12:34.169Z,20.94000053
2022-07-26T01:14:32.136Z,20.94000053
2022-07-26T01:15:32.269Z,20.90999985
2022-07-26T01:16:30.508Z,20.88999939
2022-07-26T01:17:26.732Z,20.87000084
2022-07-26T01:19:28.606Z,20.81999969
2022-07-26T01:20:23.885Z,20.78000069
2022-07-26T01:21:29.008Z,20.77000046
2022-07-26T01:22:23.282Z,20.75
2022-07-26T01:24:17.052Z,20.77000046
2022-07-26T01:25:21.260Z,20.73999977
2022-07-26T01:26:21.591Z,20.72999954
2022-07-26T01:27:17.759Z,20.71999931
2022-07-26T01:29:12.590Z,20.73999977
2022-07-26T01:30:17.302Z,20.70999908
2022-07-26T01:31:18.239Z,20.69000053
2022-07-26T01:32:14.139Z,20.68000031
2022-07-26T01:34:09.182Z,20.69000053
2022-07-26T01:35:08.535Z,20.68000031
2022-07-26T01:36:08.646Z,20.65999985
2022-07-26T01:37:54.685Z,20.71999931
2022-07-26T01:38:35.115Z,20.78000069
2022-07-26T01:39:34.160Z,20.79000092
2022-07-26T01:40:35.688Z,20.80999947
2022-07-26T01:41:38.663Z,20.79999924
2022-07-26T01:42:16.171Z,20.79000092
2022-07-26T01:43:14.229Z,20.79999924
2022-07-26T01:44:17.517Z,20.77000046
2022-07-26T01:45:12.915Z,20.73999977
2022-07-26T01:46:17.067Z,20.75
2022-07-26T01:47:15.177Z,20.76000023
2022-07-26T01:49:08.273Z,20.75
2022-07-26T01:50:08.114Z,20.71999931
2022-07-26T01:51:03.330Z,20.70000076
2022-07-26T01:52:02.495Z,20.68000031
2022-07-26T01:53:00.675Z,20.68000031
2022-07-26T01:54:04.840Z,20.65999985
2022-07-26T01:55:00.295Z,20.65999985
2022-07-26T01:56:05.621Z,20.63999939
2022-07-26T01:57:05.839Z,20.61000061
2022-07-26T01:58:12.624Z,20.57999992
2022-07-26T01:59:08.517Z,20.57999992
2022-07-26T02:00:05.507Z,20.54999924
2022-07-26T02:01:04.439Z,20.54999924
2022-07-26T02:02:01.199Z,20.53000069
2022-07-26T02:03:02.930Z,20.53000069
2022-07-26T02:04:56.552Z,20.54999924
2022-07-26T02:05:51.974Z,20.54000092
2022-07-26T02:06:50.982Z,20.52000046
2022-07-26T02:07:46.460Z,20.52000046
2022-07-26T02:09:23.645Z,20.67000008
2022-07-26T02:11:11.132Z,21.04000092
2022-07-26T02:11:49.526Z,21.12000084
2022-07-26T02:12:48.510Z,21.11000061
2022-07-26T02:14:46.033Z,21.02000046
2022-07-26T02:15:41.220Z,20.94000053
2022-07-26T02:16:39.553Z,20.88999939
2022-07-26T02:17:41.925Z,20.85000038
2022-07-26T02:18:42.203Z,20.80999947
2022-07-26T02:19:42.336Z,20.76000023
2022-07-26T02:20:41.308Z,20.73999977
2022-07-26T02:21:39.486Z,20.69000053
2022-07-26T02:22:54.226Z,20.64999962
2022-07-26T02:23:52.402Z,20.63999939
2022-07-26T02:24:53.880Z,20.60000038
2022-07-26T02:25:46.384Z,20.59000015
2022-07-26T02:26:44.980Z,20.59000015
2022-07-26T02:27:43.472Z,20.57999992
2022-07-26T02:29:38.970Z,20.56999969
2022-07-26T02:30:30.073Z,20.60000038
2022-07-26T02:31:34.136Z,20.56999969
2022-07-26T02:32:25.742Z,20.55999947
2022-07-26T02:33:30.203Z,20.57999992
2022-07-26T02:34:32.204Z,20.54999924
2022-07-26T02:34:34.034Z,20.54999924
2022-07-26T02:35:31.627Z,20.55999947
2022-07-26T02:36:25.883Z,20.56999969
2022-07-26T02:37:24.115Z,20.57999992
2022-07-26T02:39:43.804Z,20.54000092
2022-07-26T02:40:25.186Z,20.54000092
2022-07-26T02:41:25.712Z,20.55999947
2022-07-26T02:42:26.333Z,20.54999924
2022-07-26T02:44:26.652Z,20.51000023
2022-07-26T02:45:27.573Z,20.51000023
2022-07-26T02:46:27.049Z,20.47999954
2022-07-26T02:47:27.556Z,20.48999977
2022-07-26T02:48:25.864Z,20.48999977
2022-07-26T02:49:28.712Z,20.46999931
2022-07-26T02:50:26.710Z,20.45000076
2022-07-26T02:51:27.217Z,20.45999908
2022-07-26T02:52:27.734Z,20.45000076
2022-07-26T02:54:21.488Z,20.44000053
2022-07-26T02:55:26.121Z,20.40999985
2022-07-26T02:56:20.393Z,20.40999985
2022-07-26T02:57:22.595Z,20.38999939
2022-07-26T02:59:19.138Z,20.40999985
2022-07-26T03:00:17.381Z,20.45000076
2022-07-26T03:01:19.054Z,20.40999985
2022-07-26T03:02:17.205Z,20.38999939
2022-07-26T03:04:22.092Z,20.40999985
2022-07-26T03:05:22.804Z,20.38999939
2022-07-26T03:06:24.243Z,20.37999916
2022-07-26T03:07:26.680Z,20.36000061
2022-07-26T03:09:25.758Z,20.37999916
2022-07-26T03:10:21.686Z,20.37999916
2022-07-26T03:11:24.785Z,20.37000084
2022-07-26T03:12:19.075Z,20.36000061
2022-07-26T03:14:19.607Z,20.37000084
2022-07-26T03:15:18.882Z,20.37000084
2022-07-26T03:16:17.006Z,20.36000061
2022-07-26T03:17:14.249Z,20.36000061
2022-07-26T03:18:12.364Z,20.37000084
2022-07-26T03:20:14.940Z,20.37000084
2022-07-26T03:21:16.802Z,20.37999916
2022-07-26T03:22:17.106Z,20.37000084
2022-07-26T03:23:17.493Z,20.37999916
2022-07-26T03:24:15.478Z,20.37999916
2022-07-26T03:25:16.102Z,20.36000061
2022-07-26T03:26:40.861Z,20.35000038
2022-07-26T03:27:21.721Z,20.35000038
2022-07-26T03:28:19.657Z,20.38999939
2022-07-26T03:29:21.865Z,20.38999939
2022-07-26T03:30:25.196Z,20.36000061
2022-07-26T03:31:19.449Z,20.36000061
2022-07-26T03:32:18.642Z,20.37000084
2022-07-26T03:33:22.916Z,20.37000084
2022-07-26T03:34:21.607Z,20.36000061
2022-07-26T03:35:20.679Z,20.32999992
2022-07-26T03:36:21.686Z,20.30999947
2022-07-26T03:37:19.673Z,20.30999947
2022-07-26T03:38:23.382Z,20.30999947
2022-07-26T03:39:25.461Z,20.30999947
2022-07-26T03:40:24.955Z,20.29000092
2022-07-26T03:41:27.395Z,20.29999924
2022-07-26T03:42:30.545Z,20.29999924
2022-07-26T03:43:25.729Z,20.30999947
2022-07-26T03:44:32.035Z,20.29000092
2022-07-26T03:45:27.861Z,20.27000046
2022-07-26T03:46:29.441Z,20.27000046
2022-07-26T03:47:32.857Z,20.26000023
2022-07-26T03:48:34.700Z,20.28000069
2022-07-26T03:49:35.129Z,20.25
2022-07-26T03:50:33.914Z,20.22999954
2022-07-26T03:51:30.164Z,20.23999977
2022-07-26T03:52:30.940Z,20.21999931
2022-07-26T03:54:35.159Z,20.25
2022-07-26T03:55:29.478Z,20.21999931
2022-07-26T03:56:29.711Z,20.22999954
2022-07-26T03:57:28.417Z,20.21999931
2022-07-26T03:59:27.283Z,20.20999908
2022-07-26T04:00:29.590Z,20.20999908
2022-07-26T04:01:32.521Z,20.21999931
2022-07-26T04:02:35.534Z,20.19000053
2022-07-26T04:05:03.426Z,20.23999977
2022-07-26T04:05:49.018Z,20.27000046
2022-07-26T04:05:49.039Z,20.27000046
2022-07-26T04:06:45.112Z,20.30999947
2022-07-26T04:07:40.099Z,20.30999947
2022-07-26T04:09:37.710Z,20.29000092
2022-07-26T04:10:32.635Z,20.26000023
2022-07-26T04:11:32.720Z,20.23999977
2022-07-26T04:12:30.231Z,20.21999931
2022-07-26T04:14:27.278Z,20.19000053
2022-07-26T04:15:33.562Z,20.18000031
2022-07-26T04:16:26.353Z,20.14999962
2022-07-26T04:17:27.847Z,20.17000008
2022-07-26T04:19:26.162Z,20.22999954
2022-07-26T04:20:20.928Z,20.22999954
2022-07-26T04:21:20.597Z,20.22999954
2022-07-26T04:22:16.879Z,20.25
2022-07-26T04:23:19.079Z,20.20999908
2022-07-26T04:25:13.055Z,20.14999962
2022-07-26T04:26:13.674Z,20.13999939
2022-07-26T04:27:11.845Z,20.12000084
2022-07-26T04:28:13.617Z,20.11000061
2022-07-26T04:30:15.149Z,20.09000015
2022-07-26T04:31:11.381Z,20.09000015
2022-07-26T04:32:10.426Z,20.09000015
2022-07-26T04:33:20.766Z,20.10000038
2022-07-26T04:35:17.046Z,20.06999969
2022-07-26T04:36:16.423Z,20.05999947
2022-07-26T04:37:13.610Z,20.04000092
2022-07-26T04:38:15.929Z,20.04999924
2022-07-26T04:40:12.940Z,20.02000046
2022-07-26T04:41:11.168Z,20.02000046
2022-07-26T04:42:11.415Z,20.01000023
2022-07-26T04:43:07.713Z,20.02000046
2022-07-26T04:44:12.474Z,20.03000069
2022-07-26T04:45:08.380Z,20.01000023
2022-07-26T04:46:07.166Z,20.01000023
2022-07-26T04:47:08.076Z,20
2022-07-26T04:49:04.971Z,20.10000038
2022-07-26T04:49:44.556Z,20.13999939
2022-07-26T04:50:43.383Z,20.13999939
2022-07-26T04:51:43.962Z,20.12000084
2022-07-26T04:52:43.432Z,20.07999992
2022-07-26T04:54:38.725Z,20.03000069
2022-07-26T04:55:38.828Z,19.96999931
2022-07-26T04:56:34.462Z,19.95000076
2022-07-26T04:57:35.318Z,19.93000031
2022-07-26T04:58:32.371Z,19.94000053
2022-07-26T04:59:33.207Z,19.93000031
2022-07-26T05:00:27.629Z,19.90999985
2022-07-26T05:01:29.311Z,19.88999939
2022-07-26T05:02:23.721Z,19.86000061
2022-07-26T05:03:28.375Z,19.87000084
2022-07-26T05:04:20.915Z,19.87000084
2022-07-26T05:05:22.952Z,19.87000084
2022-07-26T05:06:27.401Z,19.85000038
2022-07-26T05:07:27.859Z,19.81999969
2022-07-26T05:08:22.192Z,19.81999969
2022-07-26T05:10:20.454Z,19.79999924
2022-07-26T05:11:19.913Z,19.79000092
2022-07-26T05:12:14.275Z,19.79000092
2022-07-26T05:13:13.347Z,19.79999924
2022-07-26T05:15:15.793Z,19.75
2022-07-26T05:16:12.216Z,19.73999977
2022-07-26T05:17:10.879Z,19.73999977
2022-07-26T05:18:07.060Z,19.73999977
2022-07-26T05:19:04.617Z,19.78000069
2022-07-26T05:20:03.256Z,19.77000046
2022-07-26T05:20:59.053Z,19.78000069
2022-07-26T05:21:54.260Z,19.78000069
2022-07-26T05:22:55.959Z,19.78000069
2022-07-26T05:24:51.529Z,19.80999947
2022-07-26T05:25:48.639Z,19.78000069
2022-07-26T05:26:45.690Z,19.79999924
2022-07-26T05:27:40.084Z,19.80999947
2022-07-26T05:28:40.459Z,19.85000038
2022-07-26T05:29:37.339Z,19.82999992
2022-07-26T05:30:36.531Z,19.81999969
2022-07-26T05:31:34.138Z,19.80999947
2022-07-26T05:32:33.640Z,19.78000069
2022-07-26T05:34:30.374Z,19.79000092
2022-07-26T05:35:31.882Z,19.79000092
2022-07-26T05:37:06.152Z,19.79999924
2022-07-26T05:37:47.057Z,19.80999947
2022-07-26T05:39:45.358Z,19.86000061
2022-07-26T05:40:40.644Z,19.82999992
2022-07-26T05:41:40.370Z,19.80999947
2022-07-26T05:42:37.473Z,19.79000092
2022-07-26T05:44:31.679Z,19.77000046
2022-07-26T05:45:31.775Z,19.75
2022-07-26T05:46:26.951Z,19.76000023
2022-07-26T05:47:25.611Z,19.75
2022-07-26T05:48:23.931Z,19.76000023
2022-07-26T05:50:20.570Z,19.73999977
2022-07-26T05:51:15.291Z,19.72999954
2022-07-26T05:52:17.517Z,19.71999931
2022-07-26T05:53:10.154Z,19.71999931
2022-07-26T05:55:05.349Z,19.75
2022-07-26T05:56:09.924Z,19.73999977
2022-07-26T05:57:02.458Z,19.73999977
2022-07-26T05:58:05.370Z,19.75
2022-07-26T05:59:58.201Z,19.77000046
2022-07-26T06:00:53.619Z,19.77000046
2022-07-26T06:01:53.439Z,19.78000069
2022-07-26T06:02:49.362Z,19.77000046
2022-07-26T06:04:47.533Z,19.78000069
2022-07-26T06:05:45.780Z,19.78000069
2022-07-26T06:06:41.974Z,19.77000046
2022-07-26T06:07:44.338Z,19.78000069
2022-07-26T06:08:36.581Z,19.79999924
2022-07-26T06:09:38.721Z,19.81999969
2022-07-26T06:10:31.226Z,19.80999947
2022-07-26T06:11:33.744Z,19.82999992
2022-07-26T06:12:27.042Z,19.81999969
2022-07-26T06:13:28.481Z,19.82999992
2022-07-26T06:15:18.852Z,19.82999992
2022-07-26T06:16:42.584Z,19.81999969
2022-07-26T06:17:25.749Z,19.84000015
2022-07-26T06:18:24.665Z,19.87999916
2022-07-26T06:20:21.236Z,19.88999939
2022-07-26T06:21:20.960Z,19.87999916
2022-07-26T06:22:17.142Z,19.90999985
2022-07-26T06:23:17.010Z,19.88999939
2022-07-26T06:24:12.937Z,19.90999985
2022-07-26T06:25:13.806Z,19.92000008
2022-07-26T06:26:09.280Z,19.93000031
2022-07-26T06:27:14.736Z,19.92000008
2022-07-26T06:28:07.595Z,19.95999908
2022-07-26T06:30:03.359Z,20
2022-07-26T06:31:03.695Z,20.01000023
2022-07-26T06:31:59.465Z,20.02000046
2022-07-26T06:33:01.281Z,20.01000023
2022-07-26T06:34:55.325Z,20.03000069
2022-07-26T06:35:56.195Z,20.03000069
2022-07-26T06:36:55.215Z,20.03000069
2022-07-26T06:37:52.591Z,20.04000092
2022-07-26T06:39:51.559Z,20.10000038
2022-07-26T06:40:51.812Z,20.12000084
2022-07-26T06:41:48.998Z,20.11000061
2022-07-26T06:42:48.973Z,20.12999916
2022-07-26T06:43:44.683Z,20.14999962
2022-07-26T06:44:42.793Z,20.17000008
2022-07-26T06:45:46.774Z,20.19000053
2022-07-26T06:46:42.266Z,20.20999908
2022-07-26T06:47:42.845Z,20.25
2022-07-26T06:49:39.813Z,20.29999924
2022-07-26T06:50:35.402Z,20.30999947
2022-07-26T06:51:38.513Z,20.35000038
2022-07-26T06:52:32.704Z,20.34000015
2022-07-26T06:53:33.052Z,20.37000084
2022-07-26T06:54:29.601Z,20.39999962
2022-07-26T06:55:30.062Z,20.40999985
2022-07-26T06:57:08.070Z,20.46999931
2022-07-26T06:57:50.098Z,20.53000069
2022-07-26T06:59:45.966Z,20.60000038
2022-07-26T07:00:41.322Z,20.62000084
2022-07-26T07:01:58.459Z,20.61000061
2022-07-26T07:01:58.500Z,20.61000061
2022-07-26T07:01:59.328Z,20.61000061
2022-07-26T07:02:41.436Z,20.63999939
2022-07-26T07:04:36.201Z,20.75
2022-07-26T07:05:31.538Z,20.78000069
2022-07-26T07:06:30.749Z,20.79000092
2022-07-26T07:07:25.561Z,20.78000069
2022-07-26T07:08:25.503Z,20.77000046
2022-07-26T07:10:20.696Z,20.79999924
2022-07-26T07:11:18.066Z,20.79000092
2022-07-26T07:12:17.470Z,20.81999969
2022-07-26T07:13:12.860Z,20.82999992
2022-07-26T07:15:08.139Z,20.86000061
2022-07-26T07:16:08.324Z,20.87999916
2022-07-26T07:17:03.773Z,20.89999962
2022-07-26T07:17:13.045Z,20.89999962
2022-07-26T07:17:17.265Z,20.89999962
2022-07-26T07:18:04.642Z,20.95000076
2022-07-26T07:20:02.417Z,21.04999924
2022-07-26T07:20:55.757Z,21.06999969
2022-07-26T07:21:58.323Z,21.09000015
2022-07-26T07:22:50.918Z,21.10000038
2022-07-26T07:23:48.985Z,21.11000061
2022-07-26T07:24:48.943Z,21.11000061
2022-07-26T07:25:44.861Z,21.11000061
2022-07-26T07:26:45.027Z,21.12999916
2022-07-26T07:27:40.434Z,21.12999916
2022-07-26T07:28:42.933Z,21.15999985
2022-07-26T07:29:35.608Z,21.17000008
2022-07-26T07:30:34.182Z,21.19000053
2022-07-26T07:31:47.846Z,21.20000076
2022-07-26T07:31:48.361Z,21.20000076
2022-07-26T07:31:48.605Z,21.20000076
2022-07-26T07:32:34.843Z,21.23999977
2022-07-26T07:34:44.571Z,21.32999992
2022-07-26T07:35:24.032Z,21.32999992
2022-07-26T07:36:24.309Z,21.35000038
2022-07-26T07:37:20.262Z,21.31999969
2022-07-26T07:38:19.371Z,21.29000092
2022-07-26T07:40:15.820Z,21.29999924
2022-07-26T07:41:11.667Z,21.31999969
2022-07-26T07:42:19.605Z,21.34000015
2022-07-26T07:44:40.799Z,21.51000023
2022-07-26T07:45:21.168Z,21.61000061
2022-07-26T07:46:21.686Z,21.68000031
2022-07-26T07:47:17.344Z,21.72999954
2022-07-26T07:48:18.175Z,21.76000023
2022-07-26T07:49:14.528Z,21.79000092
2022-07-26T07:50:15.107Z,21.82999992
2022-07-26T07:51:13.418Z,21.84000015
2022-07-26T07:52:09.079Z,21.89999962
2022-07-26T07:53:09.598Z,21.95000076
2022-07-26T07:54:06.084Z,21.98999977
2022-07-26T07:55:36.786Z,22.01000023
2022-07-26T07:55:36.947Z,22.01000023
2022-07-26T07:56:04.691Z,22.07999992
2022-07-26T07:57:00.126Z,22.12000084
2022-07-26T07:58:01.310Z,22.12999916
2022-07-26T07:58:56.609Z,22.11000061
2022-07-26T07:59:56.458Z,22.11000061
2022-07-26T08:00:51.893Z,22.12000084
2022-07-26T08:01:52.334Z,22.10000038
2022-07-26T08:02:47.862Z,22.10000038
2022-07-26T08:04:44.098Z,22.15999985
2022-07-26T08:05:44.804Z,22.20000076
2022-07-26T08:06:41.444Z,22.21999931
2022-07-26T08:07:43.414Z,22.23999977
2022-07-26T08:08:37.739Z,22.23999977
2022-07-26T08:09:36.615Z,22.25
2022-07-26T08:09:42.872Z,22.25
2022-07-26T08:10:35.213Z,22.29000092
2022-07-26T08:10:41.794Z,22.29000092
2022-07-26T08:10:51.729Z,22.29000092
2022-07-26T08:11:35.380Z,22.31999969
2022-07-26T08:12:31.537Z,22.40999985
2022-07-26T08:14:58.457Z,22.5
2022-07-26T08:15:24.658Z,22.60000038
2022-07-26T08:16:23.041Z,22.71999931
2022-07-26T08:17:23.677Z,22.76000023
2022-07-26T08:17:52.222Z,22.79999924
2022-07-26T08:17:54.567Z,22.79999924
2022-07-26T08:19:47.122Z,22.84000015
2022-07-26T08:20:42.386Z,22.84000015
2022-07-26T08:21:45.421Z,22.85000038
2022-07-26T08:22:38.667Z,22.86000061
2022-07-26T08:23:38.871Z,22.84000015
2022-07-26T08:24:34.103Z,22.86000061
2022-07-26T08:25:33.985Z,22.84000015
2022-07-26T08:26:30.093Z,22.80999947
2022-07-26T08:27:28.848Z,22.79999924
2022-07-26T08:28:46.300Z,22.75
2022-07-26T08:28:58.519Z,22.75
2022-07-26T08:28:59.922Z,22.75
2022-07-26T08:30:24.957Z,22.70999908
2022-07-26T08:31:17.784Z,22.69000053
2022-07-26T08:32:18.602Z,22.70999908
2022-07-26T08:33:14.156Z,22.72999954
2022-07-26T08:35:17.037Z,22.76000023
2022-07-26T08:35:17.358Z,22.76000023
2022-07-26T08:36:11.528Z,22.79000092
2022-07-26T08:37:17.051Z,22.81999969
2022-07-26T08:37:17.446Z,22.81999969
2022-07-26T08:37:18.154Z,22.81999969
2022-07-26T08:38:08.218Z,22.84000015
2022-07-26T08:40:03.005Z,22.82999992
2022-07-26T08:40:58.184Z,22.81999969
2022-07-26T08:42:00.035Z,22.80999947
2022-07-26T08:42:52.956Z,22.79000092
2022-07-26T08:43:53.770Z,22.76000023
2022-07-26T08:44:47.523Z,22.76000023
2022-07-26T08:45:54.611Z,22.76000023
2022-07-26T08:46:42.508Z,22.76000023
2022-07-26T08:48:00.722Z,22.73999977
2022-07-26T08:48:14.951Z,22.73999977
2022-07-26T08:48:16.070Z,22.73999977
2022-07-26T08:48:40.046Z,22.71999931
2022-07-26T08:49:35.331Z,22.75
2022-07-26T08:50:34.576Z,22.73999977
2022-07-26T08:51:29.717Z,22.71999931
2022-07-26T08:52:31.296Z,22.67000008
2022-07-26T08:53:26.705Z,22.62000084
2022-07-26T08:54:25.309Z,22.57999992
2022-07-26T08:55:29.647Z,22.54000092
2022-07-26T08:55:50.311Z,22.54000092
2022-07-26T08:56:24.090Z,22.54999924
2022-07-26T08:57:15.987Z,22.55999947
2022-07-26T08:58:16.381Z,22.53000069
2022-07-26T08:59:17.172Z,22.5
2022-07-26T08:59:20.824Z,22.5
2022-07-26T08:59:22.615Z,22.5
2022-07-26T09:00:11.860Z,22.5
2022-07-26T09:01:06.419Z,22.47999954
2022-07-26T09:02:05.759Z,22.43000031
2022-07-26T09:03:01.024Z,22.38999939
2022-07-26T09:04:56.945Z,22.27000046
2022-07-26T09:05:58.971Z,22.23999977
2022-07-26T09:06:51.645Z,22.20999908
2022-07-26T09:07:52.874Z,22.18000031
2022-07-26T09:09:44.112Z,22.15999985
2022-07-26T09:11:36.044Z,22.18000031
2022-07-26T09:12:01.698Z,22.23999977
2022-07-26T09:13:00.715Z,22.30999947
2022-07-26T09:14:42.440Z,22.39999962
2022-07-26T09:15:22.396Z,22.45999908
2022-07-26T09:16:19.895Z,22.48999977
2022-07-26T09:17:19.919Z,22.48999977
2022-07-26T09:18:15.078Z,22.47999954
2022-07-26T09:19:15.158Z,22.42000008
2022-07-26T09:20:12.063Z,22.37999916
2022-07-26T09:21:09.478Z,22.36000061
2022-07-26T09:22:09.900Z,22.31999969
2022-07-26T09:22:10.485Z,22.31999969
2022-07-26T09:23:04.187Z,22.28000069
2022-07-26T09:24:59.621Z,22.21999931
2022-07-26T09:25:54.941Z,22.18000031
2022-07-26T09:26:53.957Z,22.13999939
2022-07-26T09:27:50.130Z,22.11000061
2022-07-26T09:29:47.585Z,22
2022-07-26T09:30:45.607Z,21.95999908
2022-07-26T09:31:40.780Z,21.92000008
2022-07-26T09:32:39.107Z,21.87999916
2022-07-26T09:33:33.665Z,21.85000038
2022-07-26T09:34:33.387Z,21.84000015
2022-07-26T09:35:50.521Z,21.81999969
2022-07-26T09:35:51.224Z,21.81999969
2022-07-26T09:36:25.806Z,21.81999969
2022-07-26T09:37:26.012Z,21.84000015
2022-07-26T09:38:21.362Z,21.87999916
2022-07-26T09:40:16.997Z,21.94000053
2022-07-26T09:41:19.769Z,21.98999977
2022-07-26T09:42:28.478Z,22.03000069
2022-07-26T09:42:28.635Z,22.03000069
2022-07-26T09:42:28.872Z,22.03000069
2022-07-26T09:43:13.746Z,22.07999992
2022-07-26T09:44:10.279Z,22.15999985
2022-07-26T09:45:09.758Z,22.21999931
2022-07-26T09:46:05.405Z,22.26000023
2022-07-26T09:47:07.910Z,22.29000092
2022-07-26T09:48:01.140Z,22.29999924
2022-07-26T09:49:59.856Z,22.37000084
2022-07-26T09:50:55.316Z,22.43000031
2022-07-26T09:51:58.442Z,22.47999954
2022-07-26T09:52:51.335Z,22.5
2022-07-26T09:54:47.286Z,22.54999924
2022-07-26T09:55:50.349Z,22.59000015
2022-07-26T09:56:43.639Z,22.63999939
2022-07-26T09:57:46.557Z,22.68000031
2022-07-26T09:58:40.713Z,22.68000031
2022-07-26T09:59:40.570Z,22.69000053
2022-07-26T10:00:36.347Z,22.72999954
2022-07-26T10:01:39.999Z,22.76000023
2022-07-26T10:03:45.401Z,22.81999969
2022-07-26T10:04:44.460Z,22.95000076
2022-07-26T10:05:44.172Z,22.98999977
2022-07-26T10:06:40.005Z,23.02000046
2022-07-26T10:07:41.118Z,23.03000069
2022-07-26T10:08:36.745Z,23.02000046
2022-07-26T10:09:37.607Z,23.04000092
2022-07-26T10:10:33.268Z,23.04000092
2022-07-26T10:11:33.960Z,23.05999947
2022-07-26T10:12:30.663Z,23.06999969
2022-07-26T10:13:30.571Z,23.07999992
2022-07-26T10:14:31.190Z,23.06999969
2022-07-26T10:15:27.066Z,23.11000061
2022-07-26T10:16:22.506Z,23.11000061
2022-07-26T10:17:29.073Z,23.11000061
2022-07-26T10:17:31.074Z,23.11000061
2022-07-26T10:18:19.811Z,23.12000084
2022-07-26T10:20:17.613Z,23.12999916
2022-07-26T10:21:15.578Z,23.12000084
2022-07-26T10:22:10.851Z,23.11000061
2022-07-26T10:23:08.349Z,23.10000038
2022-07-26T10:24:11.127Z,23.04000092
2022-07-26T10:25:03.862Z,23.02000046
2022-07-26T10:26:03.534Z,23
2022-07-26T10:26:59.121Z,22.97999954
2022-07-26T10:27:58.992Z,22.94000053
2022-07-26T10:29:57.856Z,22.93000031
2022-07-26T10:30:50.546Z,22.90999985
2022-07-26T10:31:49.605Z,22.92000008
2022-07-26T10:32:50.684Z,22.90999985
2022-07-26T10:33:43.341Z,22.87999916
2022-07-26T10:35:38.674Z,22.88999939
2022-07-26T10:36:38.699Z,22.88999939
2022-07-26T10:37:34.177Z,22.88999939
2022-07-26T10:38:34.229Z,22.84000015
2022-07-26T10:40:30.035Z,22.73999977
2022-07-26T10:41:25.357Z,22.70000076
2022-07-26T10:42:23.129Z,22.64999962
2022-07-26T10:43:40.097Z,22.60000038
2022-07-26T10:43:44.487Z,22.60000038
2022-07-26T10:44:17.013Z,22.56999969
2022-07-26T10:45:16.731Z,22.57999992
2022-07-26T10:46:12.140Z,22.53000069
2022-07-26T10:47:14.511Z,22.48999977
2022-07-26T10:48:08.004Z,22.46999931
2022-07-26T10:49:07.254Z,22.45000076
2022-07-26T10:50:02.064Z,22.42000008
2022-07-26T10:51:06.348Z,22.42000008
2022-07-26T10:52:02.356Z,22.38999939
2022-07-26T10:53:39.929Z,22.43000031
2022-07-26T10:54:24.350Z,22.44000053
2022-07-26T10:55:19.375Z,22.47999954
2022-07-26T10:56:14.765Z,22.45000076
2022-07-26T10:57:14.181Z,22.40999985
2022-07-26T10:58:08.760Z,22.37999916
2022-07-26T10:59:09.752Z,22.32999992
2022-07-26T11:00:05.479Z,22.29999924
2022-07-26T11:01:07.056Z,22.27000046
2022-07-26T11:02:02.385Z,22.25
2022-07-26T11:03:01.090Z,22.20999908
2022-07-26T11:04:57.782Z,22.19000053
2022-07-26T11:05:50.972Z,22.18000031
2022-07-26T11:06:50.008Z,22.18000031
2022-07-26T11:07:45.394Z,22.14999962
2022-07-26T11:08:48.172Z,22.13999939
2022-07-26T11:10:40.114Z,22.14999962
2022-07-26T11:11:34.806Z,22.12999916
2022-07-26T11:12:34.161Z,22.09000015
2022-07-26T11:13:29.403Z,22.09000015
2022-07-26T11:15:07.284Z,22.07999992
2022-07-26T11:15:47.029Z,22.11000061
2022-07-26T11:16:45.200Z,22.13999939
2022-07-26T11:17:44.689Z,22.13999939
2022-07-26T11:18:39.964Z,22.12000084
2022-07-26T11:19:40.483Z,22.12000084
2022-07-26T11:20:36.678Z,22.12000084
2022-07-26T11:21:36.372Z,22.12000084
2022-07-26T11:22:34.340Z,22.12000084
2022-07-26T11:23:33.913Z,22.12000084
2022-07-26T11:25:33.194Z,22.15999985
2022-07-26T11:26:26.593Z,22.18000031
2022-07-26T11:27:26.641Z,22.20000076
2022-07-26T11:28:22.798Z,22.25
2022-07-26T11:30:24.862Z,22.28000069
2022-07-26T11:31:20.183Z,22.29999924
2022-07-26T11:32:18.989Z,22.35000038
2022-07-26T11:33:14.491Z,22.35000038
2022-07-26T11:35:10.293Z,22.28000069
2022-07-26T11:36:10.520Z,22.23999977